Nantucket Memorial Airport
KACK : rendu visible

Aérodrome :











RETROUVEZ-NOUS SUR...

 
LOGIN :

S'inscrire | Disclaimer

   EN    FR    IT 

 









Légende :    VFR   VFR Marginal   IFR   IFR Intensif   IFR Très Intensif
Visi : 
Plafond : 
>= 8 km
>= 3000ft
5 à 8 km
1000 à 3000 ft
1500m à 5 km
500 à 1000 ft
800 à 1500m
200 à 500 ft
< 800m
< 200 ft
Symboles :   Orages  Brouillard  Fortes neiges  Fortes précipitations  Vent > 20 kt






- Altitude de l'aérodrome : 47 ft
- Code IATA : ACK


KACK - Nantucket Memorial

DERNIER METAR :
  • 242353Z 07006KT 10SM CLR 03/01 A3037 RMK AO2 SLP283 T00280011 10078 20017 53000

METARs EXPIRÉS :
  • 242253Z 06006KT 10SM CLR 02/01 A3037 RMK AO2 SLP283 T00220011
  • 242153Z 05005KT 10SM CLR 04/02 A3036 RMK AO2 SLP280 T00390022

TAF KACK
Valide du 25 à 00h jusqu'au 26 à 00h UTC


242337Z 2500/2524 09008KT P6SM FEW250
FM251200 08013KT P6SM BKN030
FM251500 09015G25KT P6SM OVC020
FM252100 10019G31KT P6SM VCSH OVC012



MET'MAP, la Météo Aéronautique d'un coup d'oeil ! - Copyright ORBIFLY Décembre 2007 - Disclaimer

ORBIFLY MET'MAP TEAM :

Programmation & Développement : Alexandra Zaïnal
Sur une idée originale de : Baudouin d'Aumeries
Assistance à la programmation : Marc-Olivier Méhu
Soutien technique & logistique : Manuel Goepfert

Contact : metmap@orbifly.com




SOURCES & CREDITS :

   NOAA       Earth
Advisory